createdAt,value
2019-05-26T00:04:59.154Z,1014.68
2019-05-26T00:06:09.176Z,1014.59
2019-05-26T00:07:59.205Z,1014.67
2019-05-26T00:08:59.213Z,1014.66
2019-05-26T00:09:59.227Z,1014.6
2019-05-26T00:11:09.245Z,1014.57
2019-05-26T00:12:10.409Z,1014.57
2019-05-26T00:12:59.291Z,1014.52
2019-05-26T00:13:59.324Z,1014.59
2019-05-26T00:14:59.335Z,1014.54
2019-05-26T00:16:09.355Z,1014.54
2019-05-26T00:18:39.393Z,1014.54
2019-05-26T00:19:39.448Z,1014.47
2019-05-26T00:20:39.438Z,1014.5
2019-05-26T00:25:49.571Z,1014.47
2019-05-26T00:26:59.642Z,1014.5
2019-05-26T00:27:59.656Z,1014.45
2019-05-26T00:28:59.681Z,1014.44
2019-05-26T00:29:59.722Z,1014.37
2019-05-26T00:31:09.782Z,1014.47
2019-05-26T00:32:09.784Z,1014.43
2019-05-26T00:32:59.795Z,1014.42
2019-05-26T00:33:59.965Z,1014.38
2019-05-26T00:34:59.816Z,1014.45
2019-05-26T00:36:09.858Z,1014.47
2019-05-26T00:37:59.915Z,1014.47
2019-05-26T00:38:59.927Z,1014.45
2019-05-26T00:39:59.948Z,1014.43
2019-05-26T00:41:09.963Z,1014.44
2019-05-26T00:42:10.047Z,1014.42
2019-05-26T00:43:00.171Z,1014.41
2019-05-26T00:45:00.602Z,1014.43
2019-05-26T00:46:10.222Z,1014.4
2019-05-26T00:47:10.299Z,1014.35
2019-05-26T00:48:00.296Z,1014.41
2019-05-26T00:49:00.318Z,1014.36
2019-05-26T00:50:00.354Z,1014.41
2019-05-26T00:51:10.378Z,1014.37
2019-05-26T00:52:10.386Z,1014.33
2019-05-26T00:53:00.420Z,1014.4
2019-05-26T00:55:00.466Z,1014.29
2019-05-26T00:56:11.623Z,1014.33
2019-05-26T00:57:10.484Z,1014.39
2019-05-26T00:58:00.525Z,1014.31
2019-05-26T00:59:00.591Z,1014.41
2019-05-26T01:00:00.568Z,1014.36
2019-05-26T01:01:30.587Z,1014.28
2019-05-26T01:07:01.750Z,1014.32
2019-05-26T01:08:06.070Z,1014.28
2019-05-26T01:09:00.759Z,1014.3
2019-05-26T01:10:00.806Z,1014.25
2019-05-26T01:11:30.844Z,1014.24
2019-05-26T01:12:50.948Z,1014.31
2019-05-26T01:13:50.909Z,1014.32
2019-05-26T01:14:50.920Z,1014.24
2019-05-26T01:17:00.912Z,1014.22
2019-05-26T01:18:00.932Z,1014.27
2019-05-26T01:19:00.944Z,1014.25
2019-05-26T01:20:00.962Z,1014.24
2019-05-26T01:21:31.035Z,1014.29
2019-05-26T01:27:01.274Z,1014.42
2019-05-26T01:28:01.280Z,1014.36
2019-05-26T01:30:01.366Z,1014.46
2019-05-26T01:31:31.398Z,1014.41
2019-05-26T01:37:01.543Z,1014.46
2019-05-26T01:38:01.549Z,1014.48
2019-05-26T01:39:01.579Z,1014.48
2019-05-26T01:40:01.610Z,1014.44
2019-05-26T01:41:31.651Z,1014.44
2019-05-26T01:42:41.693Z,1014.45
2019-05-26T01:43:41.727Z,1014.5
2019-05-26T01:44:41.894Z,1014.46
2019-05-26T01:45:41.788Z,1014.42
2019-05-26T01:47:31.923Z,1014.49
2019-05-26T01:48:31.953Z,1014.44
2019-05-26T01:50:42.014Z,1014.46
2019-05-26T01:52:32.029Z,1014.41
2019-05-26T01:53:32.071Z,1014.46
2019-05-26T01:54:32.123Z,1014.43
2019-05-26T01:55:32.184Z,1014.46
2019-05-26T01:57:02.182Z,1014.48
2019-05-26T02:01:32.345Z,1014.43
2019-05-26T02:02:32.390Z,1014.44
2019-05-26T02:03:32.357Z,1014.51
2019-05-26T02:04:32.499Z,1014.49
2019-05-26T02:05:32.486Z,1014.45
2019-05-26T02:07:02.506Z,1014.51
2019-05-26T02:10:22.816Z,1014.45
2019-05-26T02:11:32.694Z,1014.44
2019-05-26T02:12:32.782Z,1014.5
2019-05-26T02:14:42.869Z,1014.47
2019-05-26T02:15:32.864Z,1014.49
2019-05-26T02:16:42.891Z,1014.49
2019-05-26T02:17:32.902Z,1014.42
2019-05-26T02:18:32.905Z,1014.43
2019-05-26T02:19:32.927Z,1014.49
2019-05-26T02:21:03.013Z,1014.5
2019-05-26T02:22:12.973Z,1014.42
2019-05-26T02:23:13.128Z,1014.42
2019-05-26T02:24:13.015Z,1014.43
2019-05-26T02:25:13.039Z,1014.36
2019-05-26T02:31:33.262Z,1014.33
2019-05-26T02:36:33.425Z,1014.38
2019-05-26T02:37:43.445Z,1014.35
2019-05-26T02:38:59.689Z,1014.29
2019-05-26T02:39:43.483Z,1014.4
2019-05-26T02:41:03.507Z,1014.37
2019-05-26T02:42:13.562Z,1014.36
2019-05-26T02:43:13.556Z,1014.39
2019-05-26T02:44:13.575Z,1014.3
2019-05-26T02:45:13.609Z,1014.25
2019-05-26T02:46:33.705Z,1014.33
2019-05-26T02:47:43.836Z,1014.24
2019-05-26T02:48:43.848Z,1014.33
2019-05-26T02:49:43.875Z,1014.32
2019-05-26T02:52:43.933Z,1014.25
2019-05-26T02:53:44.017Z,1014.27
2019-05-26T02:54:44.089Z,1014.24
2019-05-26T02:57:14.125Z,1014.2
2019-05-26T02:58:14.143Z,1014.26
2019-05-26T02:59:15.343Z,1014.23
2019-05-26T03:00:14.197Z,1014.21
2019-05-26T03:06:34.295Z,1014.21
2019-05-26T03:07:34.337Z,1014.21
2019-05-26T03:08:44.398Z,1014.22
2019-05-26T03:09:44.451Z,1014.26
2019-05-26T03:12:44.652Z,1014.17
2019-05-26T03:13:44.557Z,1014.17
2019-05-26T03:14:44.562Z,1014.26
2019-05-26T03:16:04.570Z,1014.23
2019-05-26T03:17:14.585Z,1014.27
2019-05-26T03:18:14.614Z,1014.2
2019-05-26T03:19:14.629Z,1014.25
2019-05-26T03:20:14.659Z,1014.16
2019-05-26T03:21:34.654Z,1014.18
2019-05-26T03:22:34.678Z,1014.21
2019-05-26T03:23:44.695Z,1014.17
2019-05-26T03:24:44.702Z,1014.13
2019-05-26T03:26:04.740Z,1014.16
2019-05-26T03:27:14.782Z,1014.15
2019-05-26T03:28:14.819Z,1014.2
2019-05-26T03:29:14.819Z,1014.19
2019-05-26T03:30:14.904Z,1014.2
2019-05-26T03:31:44.932Z,1014.09
2019-05-26T03:32:34.939Z,1014.15
2019-05-26T03:33:44.959Z,1014.23
2019-05-26T03:34:44.981Z,1014.23
2019-05-26T03:36:05.033Z,1014.11
2019-05-26T03:37:15.058Z,1014.1
2019-05-26T03:38:15.068Z,1014.18
2019-05-26T03:39:15.126Z,1014.23
2019-05-26T03:40:15.152Z,1014.2
2019-05-26T03:41:35.176Z,1014.22
2019-05-26T03:42:35.209Z,1014.21
2019-05-26T03:43:45.269Z,1014.18
2019-05-26T03:44:45.265Z,1014.18
2019-05-26T03:46:05.339Z,1014.27
2019-05-26T03:47:16.711Z,1014.31
2019-05-26T03:48:25.495Z,1014.4
2019-05-26T03:50:25.592Z,1014.3
2019-05-26T03:51:45.592Z,1014.36
2019-05-26T03:52:25.620Z,1014.3
2019-05-26T03:56:45.772Z,1014.29
2019-05-26T04:01:45.866Z,1014.34
2019-05-26T04:06:45.977Z,1014.41
2019-05-26T04:10:26.191Z,1014.35
2019-05-26T04:11:36.186Z,1014.42
2019-05-26T04:12:36.199Z,1014.39
2019-05-26T04:13:46.450Z,1014.33
2019-05-26T04:14:46.267Z,1014.36
2019-05-26T04:17:46.307Z,1014.4
2019-05-26T04:18:46.335Z,1014.43
2019-05-26T04:19:46.390Z,1014.5
2019-05-26T04:22:46.405Z,1014.47
2019-05-26T04:23:46.414Z,1014.37
2019-05-26T04:24:46.477Z,1014.46
2019-05-26T04:25:56.569Z,1014.5
2019-05-26T04:27:46.515Z,1014.48
2019-05-26T04:28:46.570Z,1014.54
2019-05-26T04:29:46.665Z,1014.51
2019-05-26T04:32:46.756Z,1014.55
2019-05-26T04:33:46.756Z,1014.52
2019-05-26T04:34:46.877Z,1014.59
2019-05-26T04:37:46.965Z,1014.56
2019-05-26T04:38:47.011Z,1014.66
2019-05-26T04:39:47.051Z,1014.57
2019-05-26T04:43:17.098Z,1014.59
2019-05-26T04:44:17.115Z,1014.62
2019-05-26T04:46:37.183Z,1014.63
2019-05-26T04:47:37.191Z,1014.57
2019-05-26T04:48:47.217Z,1014.63
2019-05-26T04:49:47.251Z,1014.56
2019-05-26T04:53:04.320Z,1014.69
2019-05-26T04:53:47.413Z,1014.57
2019-05-26T04:54:47.444Z,1014.62
2019-05-26T04:56:07.494Z,1014.62
2019-05-26T04:57:17.513Z,1014.64
2019-05-26T04:58:17.552Z,1014.63
2019-05-26T04:59:17.544Z,1014.67
2019-05-26T05:00:17.588Z,1014.65
2019-05-26T05:01:37.594Z,1014.75
2019-05-26T05:02:37.611Z,1014.72
2019-05-26T05:03:47.620Z,1014.7
2019-05-26T05:04:47.705Z,1014.75
2019-05-26T05:06:07.965Z,1014.72
2019-05-26T05:07:17.849Z,1014.79
2019-05-26T05:08:17.863Z,1014.73
2019-05-26T05:09:17.921Z,1014.76
2019-05-26T05:10:17.947Z,1014.63
2019-05-26T05:11:37.950Z,1014.68
2019-05-26T05:12:38.091Z,1014.74
2019-05-26T05:13:48.013Z,1014.79
2019-05-26T05:14:48.075Z,1014.77
2019-05-26T05:16:08.098Z,1014.79
2019-05-26T05:17:08.131Z,1014.78
2019-05-26T05:18:08.153Z,1014.87
2019-05-26T05:19:08.165Z,1014.79
2019-05-26T05:20:08.200Z,1014.88
2019-05-26T05:26:48.360Z,1014.88
2019-05-26T05:28:18.423Z,1014.88
2019-05-26T05:29:18.430Z,1014.88
2019-05-26T05:30:18.441Z,1014.83
2019-05-26T05:31:38.490Z,1014.83
2019-05-26T05:32:39.697Z,1014.88
2019-05-26T05:33:48.553Z,1014.91
2019-05-26T05:34:48.655Z,1014.92
2019-05-26T05:36:08.673Z,1014.92
2019-05-26T05:37:08.691Z,1015.04
2019-05-26T05:38:08.693Z,1015
2019-05-26T05:39:08.723Z,1015
2019-05-26T05:40:08.752Z,1015.03
2019-05-26T05:43:48.876Z,1015.05
2019-05-26T05:44:48.870Z,1015.09
2019-05-26T05:46:08.895Z,1015.12
2019-05-26T05:47:08.924Z,1015.09
2019-05-26T05:48:08.906Z,1015.07
2019-05-26T05:50:19.022Z,1015.09
2019-05-26T05:51:38.983Z,1015.06
2019-05-26T05:52:39.048Z,1015.16
2019-05-26T05:53:49.183Z,1015.09
2019-05-26T05:54:49.142Z,1015.12
2019-05-26T05:56:09.171Z,1015.2
2019-05-26T05:57:09.188Z,1015.22
2019-05-26T05:58:09.194Z,1015.15
2019-05-26T06:00:19.222Z,1015.19
2019-05-26T06:01:39.252Z,1015.08
2019-05-26T06:02:39.311Z,1015.15
2019-05-26T06:03:49.283Z,1015.13
2019-05-26T06:04:49.398Z,1015.2
2019-05-26T06:06:09.524Z,1015.14
2019-05-26T06:07:19.548Z,1015.12
2019-05-26T06:11:53.168Z,1015.06
2019-05-26T06:12:39.703Z,1015.09
2019-05-26T06:13:49.734Z,1015.07
2019-05-26T06:14:49.734Z,1015.15
2019-05-26T06:16:09.885Z,1015.05
2019-05-26T06:17:19.778Z,1015.04
2019-05-26T06:18:19.769Z,1015.15
2019-05-26T06:19:19.790Z,1015.17
2019-05-26T06:20:39.806Z,1015.09
2019-05-26T06:21:49.852Z,1015.17
2019-05-26T06:22:39.855Z,1015.12
2019-05-26T06:23:49.862Z,1015.14
2019-05-26T06:24:49.897Z,1015.17
2019-05-26T06:26:09.984Z,1015.14
2019-05-26T06:27:20.137Z,1015.15
2019-05-26T06:28:20.056Z,1015.15
2019-05-26T06:29:20.129Z,1015.08
2019-05-26T06:30:40.144Z,1015.16
2019-05-26T06:31:50.292Z,1015.17
2019-05-26T06:32:40.229Z,1015.15
2019-05-26T06:33:50.245Z,1015.1
2019-05-26T06:34:50.253Z,1015.09
2019-05-26T06:36:20.275Z,1015.17
2019-05-26T06:37:20.386Z,1015.08
2019-05-26T06:38:21.513Z,1015.1
2019-05-26T06:40:40.407Z,1015.07
2019-05-26T06:41:50.416Z,1015.19
2019-05-26T06:42:40.450Z,1015.2
2019-05-26T06:43:50.511Z,1015.22
2019-05-26T06:44:53.763Z,1015.14
2019-05-26T06:46:10.577Z,1015.19
2019-05-26T06:47:20.678Z,1015.15
2019-05-26T06:48:20.603Z,1015.15
2019-05-26T06:49:20.813Z,1015.11
2019-05-26T06:50:40.900Z,1015.15
2019-05-26T06:51:50.912Z,1015.12
2019-05-26T06:52:40.953Z,1015.11
2019-05-26T06:53:51.018Z,1015.04
2019-05-26T06:54:51.042Z,1015.14
2019-05-26T06:56:11.062Z,1015.09
2019-05-26T06:57:21.094Z,1015.14
2019-05-26T06:58:21.086Z,1015.11
2019-05-26T06:59:11.167Z,1015.1
2019-05-26T07:00:42.351Z,1015.11
2019-05-26T07:01:51.174Z,1015.18
2019-05-26T07:02:51.174Z,1015.12
2019-05-26T07:03:51.195Z,1015.11
2019-05-26T07:04:51.246Z,1015.13
2019-05-26T07:06:11.483Z,1015.14
2019-05-26T07:07:21.505Z,1015.05
2019-05-26T07:08:21.550Z,1015.11
2019-05-26T07:09:21.626Z,1015.14
2019-05-26T07:10:41.622Z,1015.09
2019-05-26T07:11:54.154Z,1015.2
2019-05-26T07:12:51.671Z,1015.08
2019-05-26T07:13:51.813Z,1015.1
2019-05-26T07:14:51.834Z,1015.16
2019-05-26T07:16:11.808Z,1015.14
2019-05-26T07:17:21.836Z,1015.18
2019-05-26T07:18:21.841Z,1015.19
2019-05-26T07:19:21.892Z,1015.21
2019-05-26T07:20:41.874Z,1015.19
2019-05-26T07:21:41.897Z,1015.11
2019-05-26T07:22:52.876Z,1015.22
2019-05-26T07:23:51.992Z,1015.2
2019-05-26T07:24:52.098Z,1015.21
2019-05-26T07:26:12.097Z,1015.16
2019-05-26T07:27:22.160Z,1015.26
2019-05-26T07:28:22.131Z,1015.27
2019-05-26T07:29:22.170Z,1015.27
2019-05-26T07:30:42.160Z,1015.25
2019-05-26T07:31:42.171Z,1015.29
2019-05-26T07:32:52.272Z,1015.26
2019-05-26T07:33:52.398Z,1015.22
2019-05-26T07:36:22.331Z,1015.31
2019-05-26T07:37:22.339Z,1015.32
2019-05-26T07:38:22.391Z,1015.27
2019-05-26T07:39:22.398Z,1015.3
2019-05-26T07:40:42.420Z,1015.3
2019-05-26T07:42:08.492Z,1015.38
2019-05-26T07:42:52.446Z,1015.4
2019-05-26T07:43:52.475Z,1015.37
2019-05-26T07:44:52.500Z,1015.4
2019-05-26T07:46:12.515Z,1015.33
2019-05-26T07:47:22.531Z,1015.36
2019-05-26T07:48:22.554Z,1015.39
2019-05-26T07:49:22.564Z,1015.37
2019-05-26T07:50:42.576Z,1015.36
2019-05-26T07:51:42.642Z,1015.29
2019-05-26T07:52:52.716Z,1015.38
2019-05-26T07:53:55.889Z,1015.38
2019-05-26T07:54:52.740Z,1015.29
2019-05-26T07:56:22.767Z,1015.28
2019-05-26T07:57:22.784Z,1015.27
2019-05-26T07:58:22.805Z,1015.34
2019-05-26T07:59:22.821Z,1015.3
2019-05-26T08:00:43.031Z,1015.36
2019-05-26T08:01:42.859Z,1015.26
2019-05-26T08:06:23.068Z,1015.25
2019-05-26T08:07:23.337Z,1015.25
2019-05-26T08:08:23.093Z,1015.24
2019-05-26T08:09:23.110Z,1015.15
2019-05-26T08:10:43.142Z,1015.15
2019-05-26T08:11:43.240Z,1015.21
2019-05-26T08:12:53.228Z,1015.15
2019-05-26T08:15:43.306Z,1015.01
2019-05-26T08:16:43.339Z,1015.14
2019-05-26T08:17:53.360Z,1015.08
2019-05-26T08:18:53.446Z,1015.12
2019-05-26T08:19:53.418Z,1015.1
2019-05-26T08:21:23.456Z,1015.14
2019-05-26T08:22:23.445Z,1015.1
2019-05-26T08:23:23.458Z,1015.06
2019-05-26T08:24:23.491Z,1014.99
2019-05-26T08:25:43.516Z,1015.07
2019-05-26T08:28:53.744Z,1015.08
2019-05-26T08:29:53.776Z,1015.09
2019-05-26T08:31:13.827Z,1015.09
2019-05-26T08:32:23.938Z,1015.02
2019-05-26T08:33:23.852Z,1015.06
2019-05-26T08:34:23.878Z,1015.1
2019-05-26T08:35:43.888Z,1015.06
2019-05-26T08:37:43.911Z,1014.97
2019-05-26T08:39:53.948Z,1015.05
2019-05-26T08:41:13.958Z,1015.01
2019-05-26T08:42:27.149Z,1014.93
2019-05-26T08:43:24.056Z,1014.97
2019-05-26T08:44:24.011Z,1015
2019-05-26T08:45:44.068Z,1015.02
2019-05-26T08:49:44.164Z,1014.97
2019-05-26T08:56:54.459Z,1014.89
2019-05-26T08:57:54.460Z,1014.93
2019-05-26T08:58:54.453Z,1014.98
2019-05-26T08:59:54.461Z,1014.96
2019-05-26T09:01:24.490Z,1014.96
2019-05-26T09:02:24.532Z,1014.94
2019-05-26T09:03:24.535Z,1014.95
2019-05-26T09:04:24.557Z,1014.97
2019-05-26T09:05:44.578Z,1015.01
2019-05-26T09:08:54.829Z,1014.88
2019-05-26T09:09:54.802Z,1014.89
2019-05-26T09:11:24.820Z,1014.82
2019-05-26T09:12:24.978Z,1014.78
2019-05-26T09:13:24.906Z,1014.7
2019-05-26T09:14:25.600Z,1014.69
2019-05-26T09:15:44.941Z,1014.79
2019-05-26T09:16:55.042Z,1014.8
2019-05-26T09:19:55.000Z,1014.78
2019-05-26T09:21:25.037Z,1014.87
2019-05-26T09:22:25.040Z,1014.8
2019-05-26T09:23:25.041Z,1014.82
2019-05-26T09:24:25.051Z,1014.78
2019-05-26T09:25:46.592Z,1014.72
2019-05-26T09:26:55.221Z,1014.7
2019-05-26T09:27:55.184Z,1014.63
2019-05-26T09:28:56.168Z,1014.73
2019-05-26T09:29:55.210Z,1014.72
2019-05-26T09:31:15.269Z,1014.74
2019-05-26T09:32:25.307Z,1014.72
2019-05-26T09:33:25.402Z,1014.76
2019-05-26T09:34:25.419Z,1014.67
2019-05-26T09:35:45.441Z,1014.7
2019-05-26T09:36:45.512Z,1014.68
2019-05-26T09:37:55.522Z,1014.67
2019-05-26T09:38:55.509Z,1014.66
2019-05-26T09:39:55.582Z,1014.74
2019-05-26T09:41:15.687Z,1014.64
2019-05-26T09:42:25.721Z,1014.64
2019-05-26T09:43:25.741Z,1014.7
2019-05-26T09:44:25.788Z,1014.62
2019-05-26T09:45:45.808Z,1014.58
2019-05-26T09:47:35.898Z,1014.61
2019-05-26T09:48:35.855Z,1014.69
2019-05-26T09:49:35.874Z,1014.65
2019-05-26T09:50:55.890Z,1014.62
2019-05-26T09:51:36.046Z,1014.58
2019-05-26T09:52:36.043Z,1014.53
2019-05-26T09:54:36.121Z,1014.53
2019-05-26T09:55:56.145Z,1014.58
2019-05-26T09:57:36.214Z,1014.55
2019-05-26T10:00:56.266Z,1014.62
2019-05-26T10:02:37.531Z,1014.52
2019-05-26T10:04:36.821Z,1014.53
2019-05-26T10:05:56.524Z,1014.51
2019-05-26T10:08:56.822Z,1014.53
2019-05-26T10:11:56.890Z,1014.48
2019-05-26T10:13:37.836Z,1014.44
2019-05-26T10:16:56.986Z,1014.41
2019-05-26T10:21:57.070Z,1014.37
2019-05-26T10:24:38.129Z,1014.4
2019-05-26T10:26:57.197Z,1014.35
2019-05-26T10:30:57.398Z,1014.37
2019-05-26T10:31:57.415Z,1014.35
2019-05-26T10:36:57.551Z,1014.34
2019-05-26T10:38:47.678Z,1014.34
2019-05-26T10:39:47.619Z,1014.38
2019-05-26T10:42:57.689Z,1014.3
2019-05-26T10:43:57.690Z,1014.38
2019-05-26T10:44:57.732Z,1014.39
2019-05-26T10:46:17.746Z,1014.38
2019-05-26T10:47:17.761Z,1014.3
2019-05-26T10:48:27.814Z,1014.4
2019-05-26T10:49:27.884Z,1014.37
2019-05-26T10:50:47.904Z,1014.39
2019-05-26T10:51:57.938Z,1014.4
2019-05-26T10:52:48.090Z,1014.42
2019-05-26T10:53:58.147Z,1014.41
2019-05-26T10:54:58.195Z,1014.3
2019-05-26T10:56:18.203Z,1014.31
2019-05-26T10:57:18.244Z,1014.24
2019-05-26T10:58:29.022Z,1014.25
2019-05-26T10:59:28.302Z,1014.23
2019-05-26T11:00:48.331Z,1014.2
2019-05-26T11:01:58.349Z,1014.24
2019-05-26T11:02:48.355Z,1014.23
2019-05-26T11:03:58.389Z,1014.24
2019-05-26T11:04:58.442Z,1014.17
2019-05-26T11:06:18.435Z,1014.29
2019-05-26T11:09:39.723Z,1014.27
2019-05-26T11:12:58.645Z,1014.27
2019-05-26T11:17:58.697Z,1014.2
2019-05-26T11:18:48.702Z,1014.25
2019-05-26T11:19:58.727Z,1014.24
2019-05-26T11:20:58.735Z,1014.32
2019-05-26T11:22:18.744Z,1014.3
2019-05-26T11:23:18.806Z,1014.26
2019-05-26T11:24:28.819Z,1014.3
2019-05-26T11:25:29.094Z,1014.22
2019-05-26T11:26:29.092Z,1014.35
2019-05-26T11:27:49.190Z,1014.25
2019-05-26T11:28:49.179Z,1014.32
2019-05-26T11:29:59.159Z,1014.26
2019-05-26T11:30:59.321Z,1014.21
2019-05-26T11:32:19.320Z,1014.15
2019-05-26T11:33:19.271Z,1014.16
2019-05-26T11:34:29.279Z,1014.16
2019-05-26T11:35:29.294Z,1014.17
2019-05-26T11:37:59.361Z,1014.17
2019-05-26T11:38:49.350Z,1014.09
2019-05-26T11:39:59.388Z,1014.19
2019-05-26T11:40:59.558Z,1014.05
2019-05-26T11:42:20.267Z,1014.06
2019-05-26T11:43:19.505Z,1014.06
2019-05-26T11:44:19.574Z,1014.08
2019-05-26T11:45:19.650Z,1014.04
2019-05-26T11:46:19.687Z,1014.12
2019-05-26T11:48:29.701Z,1013.98
2019-05-26T11:49:29.794Z,1014.06
2019-05-26T11:51:29.850Z,1014
2019-05-26T11:52:49.929Z,1014.05
2019-05-26T11:54:49.912Z,1013.93
2019-05-26T11:55:49.925Z,1014.02
2019-05-26T11:58:59.980Z,1013.99
2019-05-26T12:00:00.010Z,1013.96
2019-05-26T12:01:00.019Z,1013.97
2019-05-26T12:02:20.043Z,1013.89
2019-05-26T12:03:20.053Z,1013.96
2019-05-26T12:04:40.112Z,1013.95
2019-05-26T12:05:30.102Z,1013.91
2019-05-26T12:06:30.127Z,1013.91
2019-05-26T12:07:50.200Z,1013.84
2019-05-26T12:08:50.299Z,1013.9
2019-05-26T12:10:00.301Z,1013.89
2019-05-26T12:11:00.397Z,1013.96
2019-05-26T12:12:20.465Z,1013.82
2019-05-26T12:13:20.464Z,1013.86
2019-05-26T12:14:33.332Z,1013.8
2019-05-26T12:16:30.517Z,1013.74
2019-05-26T12:17:50.531Z,1013.72
2019-05-26T12:18:50.609Z,1013.74
2019-05-26T12:20:04.242Z,1013.7
2019-05-26T12:21:00.707Z,1013.74
2019-05-26T12:22:20.740Z,1013.74
2019-05-26T12:23:20.737Z,1013.74
2019-05-26T12:24:20.843Z,1013.73
2019-05-26T12:25:20.854Z,1013.7
2019-05-26T12:27:50.920Z,1013.67
2019-05-26T12:28:50.928Z,1013.63
2019-05-26T12:30:00.961Z,1013.61
2019-05-26T12:31:00.995Z,1013.61
2019-05-26T12:32:21.025Z,1013.56
2019-05-26T12:33:21.033Z,1013.6
2019-05-26T12:34:21.050Z,1013.61
2019-05-26T12:38:01.098Z,1013.7
2019-05-26T12:38:51.115Z,1013.7
2019-05-26T12:40:01.127Z,1013.72
2019-05-26T12:41:01.143Z,1013.69
2019-05-26T12:42:21.174Z,1013.73
2019-05-26T12:45:41.362Z,1013.68
2019-05-26T12:46:41.359Z,1013.66
2019-05-26T12:48:01.380Z,1013.62
2019-05-26T12:48:51.361Z,1013.6
2019-05-26T12:50:01.428Z,1013.55
2019-05-26T12:51:01.406Z,1013.68
2019-05-26T12:52:21.474Z,1013.6
2019-05-26T12:53:21.524Z,1013.62
2019-05-26T12:54:31.496Z,1013.61
2019-05-26T12:55:31.509Z,1013.56
2019-05-26T12:56:31.531Z,1013.57
2019-05-26T12:57:51.593Z,1013.57
2019-05-26T12:58:51.725Z,1013.46
2019-05-26T13:00:01.662Z,1013.48
2019-05-26T13:01:01.616Z,1013.61
2019-05-26T13:02:21.647Z,1013.57
2019-05-26T13:03:21.728Z,1013.61
2019-05-26T13:04:31.851Z,1013.49
2019-05-26T13:05:31.845Z,1013.54
2019-05-26T13:06:31.858Z,1013.58
2019-05-26T13:07:51.939Z,1013.54
2019-05-26T13:08:51.999Z,1013.48
2019-05-26T13:10:03.159Z,1013.46
2019-05-26T13:11:02.071Z,1013.42
2019-05-26T13:12:22.208Z,1013.46
2019-05-26T13:13:22.209Z,1013.39
2019-05-26T13:14:32.218Z,1013.46
2019-05-26T13:15:32.235Z,1013.4
2019-05-26T13:16:35.264Z,1013.43
2019-05-26T13:17:52.255Z,1013.44
2019-05-26T13:19:02.331Z,1013.44
2019-05-26T13:20:02.308Z,1013.48
2019-05-26T13:21:03.172Z,1013.46
2019-05-26T13:22:22.338Z,1013.42
2019-05-26T13:23:22.361Z,1013.44
2019-05-26T13:24:32.386Z,1013.37
2019-05-26T13:25:32.410Z,1013.39
2019-05-26T13:26:32.409Z,1013.38
2019-05-26T13:27:52.452Z,1013.34
2019-05-26T13:28:52.484Z,1013.38
2019-05-26T13:30:02.507Z,1013.36
2019-05-26T13:31:02.560Z,1013.29
2019-05-26T13:32:22.606Z,1013.37
2019-05-26T13:33:22.623Z,1013.35
2019-05-26T13:34:35.617Z,1013.42
2019-05-26T13:35:32.649Z,1013.39
2019-05-26T13:36:32.682Z,1013.29
2019-05-26T13:37:52.797Z,1013.21
2019-05-26T13:38:52.754Z,1013.27
2019-05-26T13:40:03.037Z,1013.35
2019-05-26T13:41:02.903Z,1013.43
2019-05-26T13:42:22.920Z,1013.34
2019-05-26T13:43:22.983Z,1013.36
2019-05-26T13:44:33.368Z,1013.34
2019-05-26T13:45:34.166Z,1013.34
2019-05-26T13:46:33.346Z,1013.39
2019-05-26T13:47:53.473Z,1013.4
2019-05-26T13:48:53.465Z,1013.37
2019-05-26T13:50:03.507Z,1013.35
2019-05-26T13:51:03.514Z,1013.31
2019-05-26T13:52:23.526Z,1013.34
2019-05-26T13:53:23.544Z,1013.36
2019-05-26T13:54:33.950Z,1013.42
2019-05-26T13:55:33.565Z,1013.4
2019-05-26T13:56:33.607Z,1013.38
2019-05-26T13:57:53.659Z,1013.45
2019-05-26T13:58:53.674Z,1013.38
2019-05-26T14:00:03.729Z,1013.35
2019-05-26T14:01:03.705Z,1013.45
2019-05-26T14:02:23.732Z,1013.4
2019-05-26T14:03:24.367Z,1013.47
2019-05-26T14:04:33.766Z,1013.46
2019-05-26T14:05:33.822Z,1013.41
2019-05-26T14:06:33.853Z,1013.39
2019-05-26T14:07:53.935Z,1013.48
2019-05-26T14:08:53.951Z,1013.39
2019-05-26T14:10:04.053Z,1013.38
2019-05-26T14:11:04.040Z,1013.46
2019-05-26T14:12:24.050Z,1013.39
2019-05-26T14:13:24.058Z,1013.37
2019-05-26T14:14:34.080Z,1013.38
2019-05-26T14:15:38.401Z,1013.39
2019-05-26T14:16:35.968Z,1013.38
2019-05-26T14:17:54.151Z,1013.41
2019-05-26T14:18:54.179Z,1013.4
2019-05-26T14:20:04.224Z,1013.35
2019-05-26T14:21:04.219Z,1013.4
2019-05-26T14:22:24.263Z,1013.34
2019-05-26T14:23:24.300Z,1013.4
2019-05-26T14:24:34.319Z,1013.41
2019-05-26T14:25:34.331Z,1013.44
2019-05-26T14:26:34.410Z,1013.44
2019-05-26T14:27:54.434Z,1013.47
2019-05-26T14:29:04.450Z,1013.43
2019-05-26T14:30:04.451Z,1013.49
2019-05-26T14:31:04.525Z,1013.47
2019-05-26T14:32:24.548Z,1013.41
2019-05-26T14:33:24.613Z,1013.42
2019-05-26T14:34:34.571Z,1013.46
2019-05-26T14:35:34.637Z,1013.51
2019-05-26T14:36:54.621Z,1013.44
2019-05-26T14:38:04.627Z,1013.49
2019-05-26T14:38:54.673Z,1013.4
2019-05-26T14:40:04.711Z,1013.45
2019-05-26T14:41:04.747Z,1013.47
2019-05-26T14:42:24.822Z,1013.37
2019-05-26T14:43:24.835Z,1013.43
2019-05-26T14:44:34.849Z,1013.3
2019-05-26T14:45:34.887Z,1013.34
2019-05-26T14:46:54.976Z,1013.39
2019-05-26T14:48:04.984Z,1013.33
2019-05-26T14:48:55.007Z,1013.35
2019-05-26T14:50:05.047Z,1013.31
2019-05-26T14:51:05.260Z,1013.25
2019-05-26T14:52:25.148Z,1013.39
2019-05-26T14:53:25.149Z,1013.35
2019-05-26T14:54:35.171Z,1013.33
2019-05-26T14:55:35.170Z,1013.29
2019-05-26T14:56:55.216Z,1013.23
2019-05-26T14:58:14.687Z,1013.31
2019-05-26T14:58:55.266Z,1013.3
2019-05-26T15:00:05.274Z,1013.34
2019-05-26T15:01:05.311Z,1013.36
2019-05-26T15:02:25.345Z,1013.35
2019-05-26T15:03:25.334Z,1013.4
2019-05-26T15:04:35.349Z,1013.3
2019-05-26T15:05:35.406Z,1013.31
2019-05-26T15:06:55.472Z,1013.29
2019-05-26T15:08:55.533Z,1013.34
2019-05-26T15:09:55.592Z,1013.34
2019-05-26T15:10:55.611Z,1013.35
2019-05-26T15:12:25.645Z,1013.28
2019-05-26T15:13:25.664Z,1013.36
2019-05-26T15:14:35.686Z,1013.32
2019-05-26T15:15:35.689Z,1013.27
2019-05-26T15:16:55.766Z,1013.28
2019-05-26T15:17:55.723Z,1013.29
2019-05-26T15:19:05.730Z,1013.33
2019-05-26T15:20:05.748Z,1013.27
2019-05-26T15:21:05.780Z,1013.3
2019-05-26T15:22:25.775Z,1013.35
2019-05-26T15:23:25.789Z,1013.38
2019-05-26T15:24:35.906Z,1013.34
2019-05-26T15:25:35.844Z,1013.34
2019-05-26T15:26:55.983Z,1013.34
2019-05-26T15:27:55.938Z,1013.31
2019-05-26T15:32:06.068Z,1013.32
2019-05-26T15:35:47.007Z,1013.3
2019-05-26T15:37:06.130Z,1013.29
2019-05-26T15:38:06.106Z,1013.32
2019-05-26T15:38:56.105Z,1013.25
2019-05-26T15:40:06.125Z,1013.33
2019-05-26T15:41:06.181Z,1013.32
2019-05-26T15:42:26.177Z,1013.29
2019-05-26T15:43:26.189Z,1013.32
2019-05-26T15:44:36.206Z,1013.32
2019-05-26T15:45:36.218Z,1013.3
2019-05-26T15:46:57.251Z,1013.3
2019-05-26T15:48:56.271Z,1013.27
2019-05-26T15:49:56.311Z,1013.32
2019-05-26T15:51:06.342Z,1013.33
2019-05-26T15:52:26.458Z,1013.37
2019-05-26T15:53:26.398Z,1013.35
2019-05-26T15:54:36.399Z,1013.25
2019-05-26T15:55:39.631Z,1013.31
2019-05-26T15:56:56.454Z,1013.3
2019-05-26T15:58:56.484Z,1013.29
2019-05-26T15:59:56.544Z,1013.26
2019-05-26T16:02:06.572Z,1013.32
2019-05-26T16:03:06.583Z,1013.38
2019-05-26T16:07:06.694Z,1013.4
2019-05-26T16:08:06.775Z,1013.41
2019-05-26T16:08:56.786Z,1013.48
2019-05-26T16:09:56.841Z,1013.45
2019-05-26T16:10:56.862Z,1013.46
2019-05-26T16:14:36.933Z,1013.48
2019-05-26T16:15:36.951Z,1013.44
2019-05-26T16:16:56.983Z,1013.5
2019-05-26T16:18:57.008Z,1013.42
2019-05-26T16:19:57.014Z,1013.44
2019-05-26T16:21:02.877Z,1013.45
2019-05-26T16:23:57.192Z,1013.48
2019-05-26T16:24:57.122Z,1013.49
2019-05-26T16:25:57.121Z,1013.46
2019-05-26T16:28:07.234Z,1013.5
2019-05-26T16:28:57.353Z,1013.46
2019-05-26T16:29:57.514Z,1013.52
2019-05-26T16:30:57.406Z,1013.55
2019-05-26T16:33:57.436Z,1013.47
2019-05-26T16:34:57.457Z,1013.53